Time;durP1;ratioP1;P1;durP2;ratioP2;P2;SDS_P1;SDS_P2;PMS_P1;PMS_P2;Temp;Humidity;BMP_temperature;BMP_pressure;BME280_temperature;BME280_humidity;BME280_pressure;Samples;Min_cycle;Max_cycle;Signal;HPM_P1;HPM_P2
2024/03/28 00:00:07;;;;;;;13.15;7.00;;;;;;;;;;4976209;28;20054;-66
2024/03/28 00:02:54;;;;;;;11.98;6.43;;;;;;;;;;4960149;28;20112;-66
2024/03/28 00:05:52;;;;;;;12.10;5.95;;;;;;;;;;4957353;28;20551;-67
2024/03/28 00:08:38;;;;;;;13.15;6.43;;;;;;;;;;4962731;28;20050;-58
2024/03/28 00:11:31;;;;;;;13.45;6.45;;;;;;;;;;4964031;28;20054;-59
2024/03/28 00:14:18;;;;;;;12.05;6.60;;;;;;;;;;4960961;28;20055;-58
2024/03/28 00:17:17;;;;;;;12.75;7.03;;;;;;;;;;4957880;28;20055;-50
2024/03/28 00:19:43;;;;;;;13.45;6.97;;;;;;;;;;4958512;28;20062;-64
2024/03/28 00:22:09;;;;;;;12.02;6.78;;;;;;;;;;4956946;28;20063;-62
2024/03/28 00:25:02;;;;;;;11.20;7.10;;;;;;;;;;4972774;28;20063;-62
2024/03/28 00:27:49;;;;;;;18.35;7.70;;;;;;;;;;4959659;28;20110;-62
2024/03/28 00:30:41;;;;;;;14.40;7.07;;;;;;;;;;4970775;28;20051;-62
2024/03/28 00:33:27;;;;;;;11.70;7.03;;;;;;;;;;4959686;28;20081;-62
2024/03/28 00:36:21;;;;;;;15.48;7.20;;;;;;;;;;4953815;28;20074;-63
2024/03/28 00:39:08;;;;;;;13.52;7.40;;;;;;;;;;4958771;28;20062;-63
2024/03/28 00:41:59;;;;;;;11.90;7.25;;;;;;;;;;4958476;28;20094;-63
2024/03/28 00:44:45;;;;;;;15.02;7.07;;;;;;;;;;4955852;28;20059;-63
2024/03/28 00:47:38;;;;;;;13.25;7.18;;;;;;;;;;4957374;28;20062;-57
2024/03/28 00:50:24;;;;;;;15.82;7.90;;;;;;;;;;4958699;28;20449;-58
2024/03/28 00:53:17;;;;;;;12.30;7.13;;;;;;;;;;4957075;28;20434;-57
2024/03/28 00:56:10;;;;;;;13.90;7.68;;;;;;;;;;4956741;28;20063;-58
2024/03/28 00:58:56;;;;;;;16.75;7.68;;;;;;;;;;4956822;28;20065;-57
2024/03/28 01:01:49;;;;;;;15.25;7.88;;;;;;;;;;4958525;28;20070;-58
2024/03/28 01:04:36;;;;;;;13.05;7.68;;;;;;;;;;4956450;28;20066;-61
2024/03/28 01:07:28;;;;;;;16.05;7.80;;;;;;;;;;4962833;28;20460;-61
2024/03/28 01:10:14;;;;;;;14.43;8.38;;;;;;;;;;4956148;28;20073;-61
2024/03/28 01:13:07;;;;;;;13.65;8.55;;;;;;;;;;4958641;28;20066;-61
2024/03/28 01:16:07;;;;;;;11.35;7.80;;;;;;;;;;4969907;28;20082;-62
2024/03/28 01:19:07;;;;;;;15.68;8.80;;;;;;;;;;4960993;28;20194;-61
2024/03/28 01:21:53;;;;;;;18.45;8.95;;;;;;;;;;4966612;28;20062;-61
2024/03/28 01:24:47;;;;;;;17.33;9.02;;;;;;;;;;4962303;28;20058;-61
2024/03/28 01:27:37;;;;;;;15.82;9.43;;;;;;;;;;4977307;28;20429;-61
2024/03/28 01:30:29;;;;;;;16.95;8.98;;;;;;;;;;4981439;28;20077;-61
2024/03/28 01:33:15;;;;;;;16.70;9.55;;;;;;;;;;4960523;28;20055;-58
2024/03/28 01:36:08;;;;;;;18.33;9.38;;;;;;;;;;4960585;28;20070;-58
2024/03/28 01:39:01;;;;;;;17.48;9.48;;;;;;;;;;4959755;28;20062;-54
2024/03/28 01:41:51;;;;;;;12.90;8.52;;;;;;;;;;4957294;28;20058;-56
2024/03/28 01:44:43;;;;;;;15.45;9.25;;;;;;;;;;4962011;28;20071;-65
2024/03/28 01:47:30;;;;;;;22.65;9.48;;;;;;;;;;4959501;28;20070;-57
2024/03/28 01:50:22;;;;;;;21.17;9.63;;;;;;;;;;4961684;28;20054;-58
2024/03/28 01:53:09;;;;;;;18.73;9.95;;;;;;;;;;4956063;28;20073;-57
2024/03/28 01:56:04;;;;;;;16.38;9.70;;;;;;;;;;4960636;28;20058;-53
2024/03/28 01:58:56;;;;;;;18.92;10.20;;;;;;;;;;4960171;28;20088;-57
2024/03/28 02:01:49;;;;;;;20.05;10.35;;;;;;;;;;4960585;28;20066;-65
2024/03/28 02:04:35;;;;;;;15.65;9.88;;;;;;;;;;4958968;28;20709;-66
2024/03/28 02:07:28;;;;;;;19.02;10.60;;;;;;;;;;4974866;28;20827;-66
2024/03/28 02:10:15;;;;;;;18.50;10.40;;;;;;;;;;4964302;28;20066;-66
2024/03/28 02:13:08;;;;;;;26.13;10.75;;;;;;;;;;4962132;28;20058;-60
2024/03/28 02:15:54;;;;;;;21.90;11.05;;;;;;;;;;4955097;28;20114;-60
2024/03/28 02:18:53;;;;;;;20.75;10.35;;;;;;;;;;4940901;28;20063;-61
2024/03/28 02:21:39;;;;;;;16.67;10.68;;;;;;;;;;4942770;28;20421;-60
2024/03/28 02:24:33;;;;;;;19.80;11.23;;;;;;;;;;4955727;28;20113;-60
2024/03/28 02:27:19;;;;;;;16.65;10.52;;;;;;;;;;4936285;28;20054;-61
2024/03/28 02:30:12;;;;;;;21.80;10.52;;;;;;;;;;4940592;28;20228;-56
2024/03/28 02:33:05;;;;;;;20.42;11.07;;;;;;;;;;4953749;28;20062;-56
2024/03/28 02:35:52;;;;;;;24.75;12.10;;;;;;;;;;4935616;28;20121;-58
2024/03/28 02:38:44;;;;;;;19.45;10.70;;;;;;;;;;4946809;28;20493;-57
2024/03/28 02:41:30;;;;;;;20.88;11.15;;;;;;;;;;4942059;28;20235;-49
2024/03/28 02:44:23;;;;;;;24.70;12.35;;;;;;;;;;4939319;28;20047;-60
2024/03/28 02:47:10;;;;;;;22.15;12.25;;;;;;;;;;4942121;28;20135;-60
2024/03/28 02:50:02;;;;;;;23.35;13.13;;;;;;;;;;4937475;28;20603;-61
2024/03/28 02:52:49;;;;;;;23.35;12.90;;;;;;;;;;4938803;28;20071;-60
2024/03/28 02:55:41;;;;;;;24.35;12.88;;;;;;;;;;4939269;28;20051;-60
2024/03/28 02:58:27;;;;;;;23.33;13.68;;;;;;;;;;4940484;28;20505;-56
2024/03/28 03:01:20;;;;;;;21.52;12.95;;;;;;;;;;4938869;28;20066;-52
2024/03/28 03:04:06;;;;;;;25.85;13.23;;;;;;;;;;4938464;28;20074;-56
2024/03/28 03:06:59;;;;;;;22.83;13.00;;;;;;;;;;4940800;28;20071;-56
2024/03/28 03:09:45;;;;;;;23.35;13.20;;;;;;;;;;4939306;28;20509;-62
2024/03/28 03:12:38;;;;;;;25.15;13.88;;;;;;;;;;4941838;28;20055;-52
2024/03/28 03:15:25;;;;;;;25.77;13.52;;;;;;;;;;4941880;28;20509;-49
2024/03/28 03:18:26;;;;;;;22.60;13.10;;;;;;;;;;4957203;28;20063;-53
2024/03/28 03:21:16;;;;;;;22.88;13.32;;;;;;;;;;4960408;28;20525;-50
2024/03/28 03:24:03;;;;;;;30.63;13.20;;;;;;;;;;4956278;28;20058;-52
2024/03/28 03:27:01;;;;;;;22.27;12.73;;;;;;;;;;4959894;28;20051;-52
2024/03/28 03:35:17;;;;;;;24.55;14.32;;;;;;;;;;4965690;28;20568;-49
2024/03/28 03:38:09;;;;;;;31.23;14.68;;;;;;;;;;4956748;28;20460;-56
2024/03/28 03:40:58;;;;;;;26.15;14.73;;;;;;;;;;4954533;28;20066;-56
2024/03/28 03:43:48;;;;;;;25.92;14.65;;;;;;;;;;4957319;28;20062;-58
2024/03/28 03:46:35;;;;;;;26.77;14.43;;;;;;;;;;4958868;28;20452;-57
2024/03/28 03:49:27;;;;;;;26.05;15.13;;;;;;;;;;4955924;28;20055;-56
2024/03/28 03:52:14;;;;;;;27.30;15.63;;;;;;;;;;4956479;28;20059;-57
2024/03/28 03:55:06;;;;;;;25.65;14.40;;;;;;;;;;4959045;28;20795;-66
2024/03/28 03:57:59;;;;;;;28.40;15.73;;;;;;;;;;4960088;28;20074;-66
2024/03/28 04:00:52;;;;;;;29.15;15.63;;;;;;;;;;4961897;28;20051;-65
2024/03/28 04:03:39;;;;;;;27.13;15.57;;;;;;;;;;4969577;28;20067;-67
2024/03/28 04:06:31;;;;;;;32.10;15.65;;;;;;;;;;4958025;28;20054;-44
2024/03/28 04:09:17;;;;;;;33.05;17.60;;;;;;;;;;4957261;28;20505;-61
2024/03/28 04:12:10;;;;;;;32.47;16.10;;;;;;;;;;4958179;28;20246;-60
2024/03/28 04:15:03;;;;;;;33.85;17.05;;;;;;;;;;4953639;28;20062;-60
2024/03/28 04:18:03;;;;;;;27.88;15.98;;;;;;;;;;4972269;28;20058;-60
2024/03/28 04:20:56;;;;;;;30.65;16.83;;;;;;;;;;4956088;28;20059;-60
2024/03/28 04:23:49;;;;;;;32.10;17.33;;;;;;;;;;4957679;28;20432;-55
2024/03/28 04:26:43;;;;;;;33.45;16.63;;;;;;;;;;4961530;28;20054;-54
2024/03/28 04:29:35;;;;;;;33.53;17.90;;;;;;;;;;4957853;28;20088;-58
2024/03/28 04:32:22;;;;;;;36.95;18.05;;;;;;;;;;4955583;28;20065;-55
2024/03/28 04:35:14;;;;;;;35.63;17.50;;;;;;;;;;4952814;28;20047;-52
2024/03/28 04:38:00;;;;;;;33.20;17.33;;;;;;;;;;4955512;28;20067;-58
2024/03/28 04:40:53;;;;;;;34.90;17.48;;;;;;;;;;4956935;28;20058;-57
2024/03/28 04:43:40;;;;;;;33.65;18.17;;;;;;;;;;4953783;28;20781;-59
2024/03/28 04:46:32;;;;;;;32.13;17.58;;;;;;;;;;4959500;28;20539;-59
2024/03/28 04:49:18;;;;;;;33.50;17.67;;;;;;;;;;4959889;28;20059;-58
2024/03/28 04:52:11;;;;;;;32.67;17.25;;;;;;;;;;4960846;28;20055;-50
2024/03/28 04:54:57;;;;;;;34.33;16.75;;;;;;;;;;4946029;28;20059;-50
2024/03/28 04:57:50;;;;;;;33.10;18.30;;;;;;;;;;4956156;28;20063;-47
2024/03/28 05:00:37;;;;;;;36.80;17.40;;;;;;;;;;4954450;28;20058;-47
2024/03/28 05:03:10;;;;;;;30.63;16.27;;;;;;;;;;4959483;28;20575;-58
2024/03/28 05:05:56;;;;;;;29.67;16.23;;;;;;;;;;4956947;28;20055;-53
2024/03/28 05:08:49;;;;;;;27.83;16.95;;;;;;;;;;4960557;28;20476;-53
2024/03/28 05:11:36;;;;;;;28.52;16.40;;;;;;;;;;4959714;28;20051;-52
2024/03/28 05:14:30;;;;;;;32.67;16.92;;;;;;;;;;4972790;28;20531;-54
2024/03/28 05:17:34;;;;;;;33.75;16.73;;;;;;;;;;4958053;28;20062;-52
2024/03/28 05:20:27;;;;;;;33.63;15.82;;;;;;;;;;4953604;28;20501;-62
2024/03/28 05:23:20;;;;;;;31.17;18.10;;;;;;;;;;4955471;28;20058;-56
2024/03/28 05:26:07;;;;;;;27.85;16.50;;;;;;;;;;4954756;28;20595;-56
2024/03/28 05:28:59;;;;;;;28.85;16.58;;;;;;;;;;4949242;28;20070;-56
2024/03/28 05:31:45;;;;;;;31.17;17.17;;;;;;;;;;4957175;28;20047;-56
2024/03/28 05:34:38;;;;;;;34.00;16.88;;;;;;;;;;4956132;28;20067;-57
2024/03/28 05:37:26;;;;;;;32.10;16.48;;;;;;;;;;4955750;28;20069;-52
2024/03/28 05:40:24;;;;;;;31.60;17.70;;;;;;;;;;4954799;28;20055;-56
2024/03/28 05:43:10;;;;;;;29.75;16.80;;;;;;;;;;4955580;28;20077;-56
2024/03/28 05:46:03;;;;;;;35.05;17.10;;;;;;;;;;4944504;28;20070;-57
2024/03/28 05:48:50;;;;;;;28.77;16.65;;;;;;;;;;4949736;28;20464;-58
2024/03/28 05:51:42;;;;;;;35.70;16.60;;;;;;;;;;4951751;28;20070;-57
2024/03/28 05:54:29;;;;;;;25.63;15.38;;;;;;;;;;4950685;28;20347;-56
2024/03/28 05:57:21;;;;;;;27.42;16.05;;;;;;;;;;4953436;28;20425;-57
2024/03/28 06:00:08;;;;;;;30.83;15.68;;;;;;;;;;4953432;28;20074;-57
2024/03/28 06:03:00;;;;;;;29.67;16.25;;;;;;;;;;4951922;28;20067;-55
2024/03/28 06:05:46;;;;;;;31.38;16.70;;;;;;;;;;4953361;28;20090;-57
2024/03/28 06:08:40;;;;;;;29.67;15.00;;;;;;;;;;4953154;28;20062;-59
2024/03/28 06:11:25;;;;;;;35.67;16.60;;;;;;;;;;4951771;28;20433;-66
2024/03/28 06:14:18;;;;;;;24.35;14.57;;;;;;;;;;4955659;28;20061;-66
2024/03/28 06:17:11;;;;;;;28.65;14.85;;;;;;;;;;4953287;28;20069;-66
2024/03/28 06:20:05;;;;;;;31.83;16.65;;;;;;;;;;4960460;28;20066;-66
2024/03/28 06:22:51;;;;;;;25.95;15.13;;;;;;;;;;4956916;28;20477;-66
2024/03/28 06:25:45;;;;;;;26.13;15.88;;;;;;;;;;4957373;28;20058;-60
2024/03/28 06:28:37;;;;;;;29.25;15.75;;;;;;;;;;4959485;28;20055;-60
2024/03/28 06:31:24;;;;;;;28.05;15.73;;;;;;;;;;4959027;28;20082;-61
2024/03/28 06:34:16;;;;;;;23.77;14.15;;;;;;;;;;4972624;28;20245;-60
2024/03/28 06:37:16;;;;;;;26.58;14.73;;;;;;;;;;4959378;28;20595;-60
2024/03/28 06:40:02;;;;;;;25.17;15.27;;;;;;;;;;4953250;28;20055;-59
2024/03/28 06:42:55;;;;;;;24.45;14.40;;;;;;;;;;4960075;28;20066;-58
2024/03/28 06:45:42;;;;;;;25.30;14.65;;;;;;;;;;4959906;28;20058;-59
2024/03/28 06:48:35;;;;;;;25.73;14.20;;;;;;;;;;4971301;28;20055;-58
2024/03/28 06:51:21;;;;;;;24.30;14.13;;;;;;;;;;4955243;28;20051;-59
2024/03/28 06:54:14;;;;;;;25.02;14.73;;;;;;;;;;4960129;28;20054;-61
2024/03/28 06:57:01;;;;;;;26.40;14.52;;;;;;;;;;4957795;28;20058;-61
2024/03/28 06:59:53;;;;;;;22.20;14.27;;;;;;;;;;4957755;28;20606;-61
2024/03/28 07:02:40;;;;;;;28.40;15.75;;;;;;;;;;4955343;28;20062;-61
2024/03/28 07:05:32;;;;;;;25.90;14.70;;;;;;;;;;4958186;28;20128;-62
2024/03/28 07:08:19;;;;;;;27.17;14.50;;;;;;;;;;4958777;28;20417;-56
2024/03/28 07:11:11;;;;;;;23.15;13.68;;;;;;;;;;4958705;28;20066;-58
2024/03/28 07:13:57;;;;;;;26.30;14.55;;;;;;;;;;4954786;28;20063;-57
2024/03/28 07:17:03;;;;;;;25.17;14.43;;;;;;;;;;4958675;28;20058;-56
2024/03/28 07:19:57;;;;;;;23.33;13.15;;;;;;;;;;4962860;28;20711;-57
2024/03/28 07:22:49;;;;;;;22.23;13.93;;;;;;;;;;4973740;28;20436;-67
2024/03/28 07:25:35;;;;;;;27.48;13.63;;;;;;;;;;4962838;28;20066;-67
2024/03/28 07:28:28;;;;;;;22.27;13.82;;;;;;;;;;4964247;28;20058;-66
2024/03/28 07:31:15;;;;;;;21.58;13.50;;;;;;;;;;4973010;28;20058;-67
2024/03/28 07:34:07;;;;;;;24.80;13.75;;;;;;;;;;4967776;28;20066;-62
2024/03/28 07:37:00;;;;;;;20.58;12.85;;;;;;;;;;4972045;28;20054;-61
2024/03/28 07:39:47;;;;;;;25.02;12.90;;;;;;;;;;4954907;28;20420;-61
2024/03/28 07:42:39;;;;;;;24.08;13.85;;;;;;;;;;4960883;28;20055;-61
2024/03/28 07:45:26;;;;;;;19.60;13.05;;;;;;;;;;4962128;28;20051;-62
2024/03/28 07:48:18;;;;;;;21.63;12.70;;;;;;;;;;4961300;28;20121;-61
2024/03/28 07:51:06;;;;;;;24.80;13.35;;;;;;;;;;4958052;28;20058;-61
2024/03/28 07:53:57;;;;;;;22.15;13.00;;;;;;;;;;4965061;28;20057;-61
2024/03/28 07:56:43;;;;;;;21.58;13.55;;;;;;;;;;4957825;28;20054;-61
2024/03/28 07:59:36;;;;;;;20.40;13.07;;;;;;;;;;4962684;28;20220;-61
2024/03/28 08:02:26;;;;;;;25.65;12.73;;;;;;;;;;4963234;28;20050;-58
2024/03/28 08:05:18;;;;;;;21.75;12.13;;;;;;;;;;4969718;28;20062;-52
2024/03/28 08:08:11;;;;;;;29.95;12.15;;;;;;;;;;4960984;28;20051;-49
2024/03/28 08:10:58;;;;;;;17.55;11.63;;;;;;;;;;4965846;28;20062;-52
2024/03/28 08:13:50;;;;;;;24.75;13.38;;;;;;;;;;4970778;28;20051;-49
2024/03/28 08:16:36;;;;;;;21.33;12.30;;;;;;;;;;4961520;28;20051;-51
2024/03/28 08:19:36;;;;;;;25.98;12.98;;;;;;;;;;4965519;28;20065;-50
2024/03/28 08:22:22;;;;;;;20.02;12.18;;;;;;;;;;4946916;28;20058;-51
2024/03/28 08:25:15;;;;;;;23.63;13.40;;;;;;;;;;4948802;28;20066;-48
2024/03/28 08:28:01;;;;;;;23.05;12.85;;;;;;;;;;4943968;28;20133;-48
2024/03/28 08:30:54;;;;;;;20.90;12.80;;;;;;;;;;4947500;28;20468;-49
2024/03/28 08:33:40;;;;;;;21.23;13.35;;;;;;;;;;4948156;28;20043;-51
2024/03/28 08:36:34;;;;;;;26.52;13.80;;;;;;;;;;4947829;28;20051;-47
2024/03/28 08:39:24;;;;;;;20.13;13.05;;;;;;;;;;4963562;28;20110;-48
2024/03/28 08:42:13;;;;;;;19.50;12.35;;;;;;;;;;4944299;28;20062;-53
2024/03/28 08:45:08;;;;;;;25.17;13.68;;;;;;;;;;4950045;28;20604;-53
2024/03/28 08:47:54;;;;;;;20.92;11.82;;;;;;;;;;4943720;28;20051;-61
2024/03/28 08:50:45;;;;;;;24.08;13.50;;;;;;;;;;4943962;28;20062;-61
2024/03/28 08:53:31;;;;;;;26.80;14.23;;;;;;;;;;4947452;28;20521;-61
2024/03/28 08:56:24;;;;;;;23.15;14.63;;;;;;;;;;4946393;28;20758;-61
2024/03/28 08:59:11;;;;;;;25.50;13.45;;;;;;;;;;4948276;28;20069;-58
2024/03/28 09:02:04;;;;;;;22.35;13.82;;;;;;;;;;4950202;28;20067;-60
2024/03/28 09:04:50;;;;;;;20.83;13.25;;;;;;;;;;4947643;28;20616;-59
2024/03/28 09:07:42;;;;;;;23.27;12.55;;;;;;;;;;4950018;28;20063;-60
2024/03/28 09:10:29;;;;;;;20.90;14.30;;;;;;;;;;4942428;28;20258;-60
2024/03/28 09:13:21;;;;;;;20.58;13.32;;;;;;;;;;4962948;28;20689;-60
2024/03/28 09:16:08;;;;;;;22.95;13.77;;;;;;;;;;4947429;28;20086;-64
2024/03/28 09:19:07;;;;;;;23.00;13.68;;;;;;;;;;4960482;28;20129;-64
2024/03/28 09:21:53;;;;;;;23.88;14.65;;;;;;;;;;4962164;28;20497;-64
2024/03/28 09:24:46;;;;;;;20.00;13.48;;;;;;;;;;4964509;28;20124;-63
2024/03/28 09:27:32;;;;;;;23.42;13.68;;;;;;;;;;4961839;28;20070;-63
2024/03/28 09:30:27;;;;;;;18.95;13.15;;;;;;;;;;4961802;28;20476;-65
2024/03/28 09:33:12;;;;;;;22.58;13.65;;;;;;;;;;4957571;28;20571;-63
2024/03/28 09:36:05;;;;;;;22.20;13.93;;;;;;;;;;4962592;28;20066;-63
2024/03/28 09:38:51;;;;;;;23.58;15.25;;;;;;;;;;4965792;28;20425;-63
2024/03/28 09:41:47;;;;;;;21.17;13.85;;;;;;;;;;4965015;28;20117;-63
2024/03/28 09:44:35;;;;;;;27.25;14.90;;;;;;;;;;4960620;28;20046;-50
2024/03/28 09:47:26;;;;;;;20.48;13.52;;;;;;;;;;4961735;28;20505;-52
2024/03/28 09:50:12;;;;;;;19.42;13.52;;;;;;;;;;4964377;28;20084;-51
2024/03/28 09:53:06;;;;;;;21.75;13.43;;;;;;;;;;4964167;28;20066;-48
2024/03/28 09:55:52;;;;;;;23.23;13.90;;;;;;;;;;4963540;28;20047;-50
2024/03/28 09:58:45;;;;;;;23.80;14.07;;;;;;;;;;4965202;28;20062;-49
2024/03/28 10:01:33;;;;;;;22.42;13.57;;;;;;;;;;4959417;28;20062;-48
2024/03/28 10:04:25;;;;;;;21.35;14.13;;;;;;;;;;4975826;28;20570;-50
2024/03/28 10:07:12;;;;;;;22.02;13.75;;;;;;;;;;4959578;28;20065;-50
2024/03/28 10:10:07;;;;;;;21.52;12.88;;;;;;;;;;4963827;28;20137;-49
2024/03/28 10:13:05;;;;;;;24.35;13.15;;;;;;;;;;4959063;28;20156;-67
2024/03/28 10:15:56;;;;;;;26.23;14.23;;;;;;;;;;4960935;28;20534;-67
2024/03/28 10:18:57;;;;;;;22.27;14.88;;;;;;;;;;4954091;28;20055;-67
2024/03/28 10:21:41;;;;;;;24.65;14.55;;;;;;;;;;4959937;28;20055;-67
2024/03/28 10:24:34;;;;;;;23.98;13.82;;;;;;;;;;4958616;28;20058;-61
2024/03/28 10:27:20;;;;;;;19.73;13.88;;;;;;;;;;4969478;28;20509;-60
2024/03/28 10:30:20;;;;;;;26.15;14.40;;;;;;;;;;4954775;28;20063;-60
2024/03/28 10:33:07;;;;;;;23.75;13.52;;;;;;;;;;4957655;28;20098;-60
2024/03/28 10:36:00;;;;;;;22.73;13.75;;;;;;;;;;4954708;28;20062;-60
2024/03/28 10:39:11;;;;;;;23.63;13.25;;;;;;;;;;4955107;28;20058;-60
2024/03/28 10:42:01;;;;;;;22.40;13.80;;;;;;;;;;4959586;28;20070;-53
2024/03/28 10:44:48;;;;;;;25.17;14.35;;;;;;;;;;4953946;28;20063;-56
2024/03/28 10:47:41;;;;;;;25.92;12.25;;;;;;;;;;4955189;28;20074;-55
2024/03/28 10:50:33;;;;;;;25.75;14.38;;;;;;;;;;4955605;28;20061;-52
2024/03/28 10:53:29;;;;;;;23.67;14.07;;;;;;;;;;4970904;28;20066;-58
2024/03/28 10:56:17;;;;;;;25.20;12.32;;;;;;;;;;4957695;28;20310;-68
2024/03/28 10:59:10;;;;;;;22.38;12.80;;;;;;;;;;4957473;28;20062;-66
2024/03/28 11:01:57;;;;;;;21.67;12.77;;;;;;;;;;4954630;28;20521;-66
2024/03/28 11:04:51;;;;;;;21.52;13.43;;;;;;;;;;4956983;28;20114;-65
2024/03/28 11:07:37;;;;;;;22.05;13.20;;;;;;;;;;4956153;28;20055;-68
2024/03/28 11:10:30;;;;;;;23.55;13.55;;;;;;;;;;4958078;28;20063;-66
2024/03/28 11:13:24;;;;;;;23.95;13.43;;;;;;;;;;4959516;28;20106;-67
2024/03/28 11:16:20;;;;;;;19.63;12.75;;;;;;;;;;4957679;28;20141;-67
2024/03/28 11:19:13;;;;;;;22.92;13.27;;;;;;;;;;4955949;28;20521;-66
2024/03/28 11:22:06;;;;;;;20.70;13.20;;;;;;;;;;4954887;28;20134;-62
2024/03/28 11:24:53;;;;;;;20.30;12.60;;;;;;;;;;4958695;28;20063;-63
2024/03/28 11:27:45;;;;;;;18.95;12.32;;;;;;;;;;4956974;28;20069;-62
2024/03/28 11:30:32;;;;;;;24.90;13.38;;;;;;;;;;4955897;28;20059;-61
2024/03/28 11:33:28;;;;;;;21.65;12.10;;;;;;;;;;4959528;28;20064;-62
2024/03/28 11:36:15;;;;;;;21.98;12.85;;;;;;;;;;4955019;28;20059;-62
2024/03/28 11:39:08;;;;;;;19.73;12.70;;;;;;;;;;4977547;28;20540;-62
2024/03/28 11:41:54;;;;;;;17.30;11.65;;;;;;;;;;4959336;28;20066;-61
2024/03/28 11:44:46;;;;;;;21.35;12.60;;;;;;;;;;4959532;28;20117;-62
2024/03/28 11:47:33;;;;;;;21.42;12.48;;;;;;;;;;4963777;28;20058;-62
2024/03/28 11:50:25;;;;;;;18.98;13.07;;;;;;;;;;4961333;28;20050;-54
2024/03/28 11:53:19;;;;;;;21.95;12.65;;;;;;;;;;4963382;28;20071;-53
2024/03/28 11:56:06;;;;;;;27.23;11.88;;;;;;;;;;4962472;28;20461;-54
2024/03/28 11:58:59;;;;;;;17.27;11.48;;;;;;;;;;4958696;28;20051;-52
2024/03/28 12:01:44;;;;;;;23.40;12.80;;;;;;;;;;4957763;28;20050;-55
2024/03/28 12:04:37;;;;;;;19.55;12.30;;;;;;;;;;4958765;28;20528;-51
2024/03/28 12:07:23;;;;;;;19.88;12.25;;;;;;;;;;4965175;28;20054;-60
2024/03/28 12:10:20;;;;;;;20.52;12.35;;;;;;;;;;4961399;28;20059;-60
2024/03/28 12:13:09;;;;;;;18.63;11.05;;;;;;;;;;4958194;28;20126;-60
2024/03/28 12:16:02;;;;;;;19.88;12.32;;;;;;;;;;4958946;28;20591;-60
2024/03/28 12:19:03;;;;;;;19.75;12.40;;;;;;;;;;4957029;28;20059;-57
2024/03/28 12:22:02;;;;;;;21.00;11.70;;;;;;;;;;4955688;28;20062;-59
2024/03/28 12:24:48;;;;;;;18.42;12.13;;;;;;;;;;4959034;28;20063;-59
2024/03/28 12:27:41;;;;;;;22.75;12.32;;;;;;;;;;4956374;28;20066;-59
2024/03/28 12:30:27;;;;;;;20.20;12.55;;;;;;;;;;4955988;28;20996;-56
2024/03/28 12:33:25;;;;;;;18.25;12.07;;;;;;;;;;4958645;28;20054;-59
2024/03/28 12:36:15;;;;;;;19.30;11.57;;;;;;;;;;4955913;28;20077;-61
2024/03/28 12:39:10;;;;;;;25.02;12.73;;;;;;;;;;4957110;28;20074;-62
2024/03/28 12:41:54;;;;;;;22.42;11.63;;;;;;;;;;4954543;28;20402;-61
2024/03/28 13:29:12;;;;;;;21.83;11.30;;;;;;;;;;5861690;22;8306741;-60
2024/03/28 13:31:45;;;;;;;18.35;10.77;;;;;;;;;;6189923;23;20020;-61
2024/03/28 13:34:19;;;;;;;19.67;10.98;;;;;;;;;;6188621;23;20504;-60
2024/03/28 13:37:05;;;;;;;21.27;11.77;;;;;;;;;;6187034;23;20024;-61
2024/03/28 13:39:57;;;;;;;23.05;11.45;;;;;;;;;;6187359;23;20086;-61
2024/03/28 13:42:44;;;;;;;22.63;11.25;;;;;;;;;;6187632;23;20082;-61
2024/03/28 13:45:36;;;;;;;19.05;10.88;;;;;;;;;;6187198;23;20310;-58
2024/03/28 13:48:24;;;;;;;17.33;11.43;;;;;;;;;;6188177;23;20070;-57
2024/03/28 13:51:16;;;;;;;17.85;11.13;;;;;;;;;;6187836;23;20024;-56
2024/03/28 14:42:32;;;;;;;16.48;9.80;;;;;;;;;;5815844;23;8337886;-58
2024/03/28 14:45:06;;;;;;;16.40;8.93;;;;;;;;;;6094704;23;20026;-59
2024/03/28 14:47:35;;;;;;;18.55;10.02;;;;;;;;;;6095155;23;20021;-58
2024/03/28 14:50:01;;;;;;;17.92;9.32;;;;;;;;;;6095156;23;20029;-58
2024/03/28 14:52:34;;;;;;;16.00;8.85;;;;;;;;;;6095512;23;20030;-58
2024/03/28 14:55:01;;;;;;;13.73;9.00;;;;;;;;;;6094919;23;20495;-59
2024/03/28 14:57:34;;;;;;;15.68;9.20;;;;;;;;;;6093482;23;20026;-56
2024/03/28 15:00:00;;;;;;;12.55;7.97;;;;;;;;;;6096677;23;20461;-57
2024/03/28 15:02:27;;;;;;;20.45;8.95;;;;;;;;;;6110523;23;20029;-58
2024/03/28 15:05:19;;;;;;;13.32;8.15;;;;;;;;;;6122353;23;20371;-58
2024/03/28 15:08:12;;;;;;;15.00;8.45;;;;;;;;;;6123074;23;20084;-58
2024/03/28 15:11:02;;;;;;;16.50;8.43;;;;;;;;;;6120842;23;20030;-58
2024/03/28 15:13:55;;;;;;;19.77;9.25;;;;;;;;;;6120155;23;20036;-48
2024/03/28 15:16:41;;;;;;;13.57;8.38;;;;;;;;;;6119527;23;20021;-51
2024/03/28 15:19:34;;;;;;;15.60;8.55;;;;;;;;;;6119225;23;20387;-50
2024/03/28 15:22:20;;;;;;;15.43;8.95;;;;;;;;;;6119926;23;20018;-52
2024/03/28 15:25:13;;;;;;;15.88;8.98;;;;;;;;;;6119441;23;20021;-62
2024/03/28 15:28:00;;;;;;;16.52;7.32;;;;;;;;;;6117764;23;20025;-65
2024/03/28 15:30:53;;;;;;;14.95;7.97;;;;;;;;;;6120234;23;20029;-65
2024/03/28 15:33:39;;;;;;;17.58;8.50;;;;;;;;;;6118696;23;20025;-65
2024/03/28 15:36:32;;;;;;;13.55;7.72;;;;;;;;;;6114226;23;20030;-66
2024/03/28 15:39:28;;;;;;;12.90;8.55;;;;;;;;;;6108191;23;20546;-65
2024/03/28 15:42:17;;;;;;;15.43;8.43;;;;;;;;;;6108344;23;20018;-65
2024/03/28 15:45:17;;;;;;;14.93;8.35;;;;;;;;;;6109403;23;20033;-62
2024/03/28 15:48:03;;;;;;;12.57;8.00;;;;;;;;;;6110142;23;20732;-59
2024/03/28 15:50:56;;;;;;;16.20;8.45;;;;;;;;;;6108749;23;20384;-60
2024/03/28 15:53:42;;;;;;;16.05;9.23;;;;;;;;;;6109508;23;20029;-60
2024/03/28 15:56:35;;;;;;;14.55;9.23;;;;;;;;;;6106958;23;20088;-60
2024/03/28 15:59:28;;;;;;;16.35;8.93;;;;;;;;;;6110747;23;20026;-60
2024/03/28 16:02:24;;;;;;;17.48;9.98;;;;;;;;;;6112004;23;20025;-60
2024/03/28 16:05:11;;;;;;;16.88;10.25;;;;;;;;;;6111234;23;20029;-61
2024/03/28 16:08:04;;;;;;;17.42;9.77;;;;;;;;;;6110954;23;20359;-60
2024/03/28 16:10:54;;;;;;;17.00;10.43;;;;;;;;;;6109692;23;20490;-60
2024/03/28 16:13:47;;;;;;;18.35;10.85;;;;;;;;;;6108203;23;20510;-60
2024/03/28 16:16:33;;;;;;;18.50;11.20;;;;;;;;;;6110215;23;20029;-60
2024/03/28 16:19:26;;;;;;;22.35;12.07;;;;;;;;;;6109926;23;20033;-59
2024/03/28 16:22:19;;;;;;;19.75;12.05;;;;;;;;;;6109219;23;20407;-50
2024/03/28 16:25:12;;;;;;;24.10;12.65;;;;;;;;;;6107758;23;20054;-51
2024/03/28 16:27:58;;;;;;;19.17;12.68;;;;;;;;;;6109999;23;20021;-51
2024/03/28 16:30:55;;;;;;;24.55;12.70;;;;;;;;;;6108070;23;20037;-50
2024/03/28 16:33:41;;;;;;;26.38;13.10;;;;;;;;;;6107588;23;20033;-53
2024/03/28 16:36:34;;;;;;;29.88;13.52;;;;;;;;;;6108176;23;20589;-50
2024/03/28 16:39:20;;;;;;;25.38;14.30;;;;;;;;;;6107742;23;20420;-52
2024/03/28 16:42:20;;;;;;;23.15;14.07;;;;;;;;;;6106229;23;20026;-55
2024/03/28 16:45:13;;;;;;;23.95;14.35;;;;;;;;;;6107889;23;20059;-55
2024/03/28 16:48:05;;;;;;;20.42;14.02;;;;;;;;;;6108949;23;20026;-50
2024/03/28 16:50:51;;;;;;;21.73;13.27;;;;;;;;;;6110307;23;20482;-55
2024/03/28 16:53:44;;;;;;;20.50;12.85;;;;;;;;;;6108726;23;20034;-53
2024/03/28 16:56:37;;;;;;;24.15;14.82;;;;;;;;;;6109168;23;20033;-55
2024/03/28 16:59:23;;;;;;;26.73;14.80;;;;;;;;;;6110903;23;20363;-54
2024/03/28 17:02:16;;;;;;;25.67;16.23;;;;;;;;;;6110496;23;20447;-49
2024/03/28 17:05:02;;;;;;;26.55;14.52;;;;;;;;;;6108623;23;20026;-51
2024/03/28 17:07:55;;;;;;;27.98;15.32;;;;;;;;;;6107512;23;20034;-52
2024/03/28 17:10:52;;;;;;;26.65;15.98;;;;;;;;;;6108497;23;20627;-51
2024/03/28 17:13:39;;;;;;;25.80;15.68;;;;;;;;;;6107678;23;20032;-54
2024/03/28 17:16:31;;;;;;;28.73;16.15;;;;;;;;;;6108232;23;20030;-57
2024/03/28 17:19:24;;;;;;;30.50;15.65;;;;;;;;;;6108776;23;20048;-66
2024/03/28 17:22:17;;;;;;;25.10;14.00;;;;;;;;;;6103888;23;20437;-66
2024/03/28 17:25:03;;;;;;;28.17;15.70;;;;;;;;;;6103948;23;20025;-66
2024/03/28 17:27:56;;;;;;;25.20;15.80;;;;;;;;;;6105041;23;20022;-66
2024/03/28 17:30:42;;;;;;;29.60;16.98;;;;;;;;;;6106318;23;20025;-66
2024/03/28 17:33:37;;;;;;;27.50;13.27;;;;;;;;;;6105393;23;20088;-60
2024/03/28 17:36:28;;;;;;;26.25;16.77;;;;;;;;;;6104005;23;20036;-63
2024/03/28 17:39:16;;;;;;;24.25;16.00;;;;;;;;;;6107550;23;20030;-62
2024/03/28 17:42:20;;;;;;;30.88;14.88;;;;;;;;;;6107390;23;20022;-62
2024/03/28 17:45:13;;;;;;;37.92;17.05;;;;;;;;;;6068762;23;20248;-62
2024/03/28 17:48:06;;;;;;;28.13;15.45;;;;;;;;;;6078586;23;20080;-61
2024/03/28 17:50:52;;;;;;;28.25;16.83;;;;;;;;;;6082006;23;20022;-62
2024/03/28 17:53:45;;;;;;;27.65;15.50;;;;;;;;;;6080770;23;20089;-59
2024/03/28 17:56:31;;;;;;;30.55;16.20;;;;;;;;;;6074313;23;20408;-60
2024/03/28 17:59:06;;;;;;;27.70;16.75;;;;;;;;;;6080478;23;20019;-60
2024/03/28 18:01:52;;;;;;;30.45;16.70;;;;;;;;;;6083013;23;20022;-59
2024/03/28 18:04:49;;;;;;;33.05;15.52;;;;;;;;;;6083509;23;20034;-59
2024/03/28 18:07:41;;;;;;;23.02;12.63;;;;;;;;;;6080678;23;20026;-60